地図

経路データ

SID SEASON NUMBER BASIN SUBBASIN NAME ISO_TIME NATURE LAT LON WMO_WIND WMO_PRES WMO_AGENCY TRACK_TYPE DIST2LAND LANDFALL IFLAG USA_AGENCY USA_ATCF_ID USA_LAT USA_LON USA_RECORD USA_STATUS USA_WIND USA_PRES USA_SSHS USA_R34_NE USA_R34_SE USA_R34_SW USA_R34_NW USA_R50_NE USA_R50_SE USA_R50_SW USA_R50_NW USA_R64_NE USA_R64_SE USA_R64_SW USA_R64_NW USA_POCI USA_ROCI USA_RMW USA_EYE TOKYO_LAT TOKYO_LON TOKYO_GRADE TOKYO_WIND TOKYO_PRES TOKYO_R50_DIR TOKYO_R50_LONG TOKYO_R50_SHORT TOKYO_R30_DIR TOKYO_R30_LONG TOKYO_R30_SHORT TOKYO_LAND CMA_LAT CMA_LON CMA_CAT CMA_WIND CMA_PRES HKO_LAT HKO_LON HKO_CAT HKO_WIND HKO_PRES NEWDELHI_LAT NEWDELHI_LON NEWDELHI_GRADE NEWDELHI_WIND NEWDELHI_PRES NEWDELHI_CI NEWDELHI_DP NEWDELHI_POCI REUNION_LAT REUNION_LON REUNION_TYPE REUNION_WIND REUNION_PRES REUNION_TNUM REUNION_CI REUNION_RMW REUNION_R34_NE REUNION_R34_SE REUNION_R34_SW REUNION_R34_NW REUNION_R50_NE REUNION_R50_SE REUNION_R50_SW REUNION_R50_NW REUNION_R64_NE REUNION_R64_SE REUNION_R64_SW REUNION_R64_NW BOM_LAT BOM_LON BOM_TYPE BOM_WIND BOM_PRES BOM_TNUM BOM_CI BOM_RMW BOM_R34_NE BOM_R34_SE BOM_R34_SW BOM_R34_NW BOM_R50_NE BOM_R50_SE BOM_R50_SW BOM_R50_NW BOM_R64_NE BOM_R64_SE BOM_R64_SW BOM_R64_NW BOM_ROCI BOM_POCI BOM_EYE BOM_POS_METHOD BOM_PRES_METHOD NADI_LAT NADI_LON NADI_CAT NADI_WIND NADI_PRES WELLINGTON_LAT WELLINGTON_LON WELLINGTON_WIND WELLINGTON_PRES DS824_LAT DS824_LON DS824_STAGE DS824_WIND DS824_PRES TD9636_LAT TD9636_LON TD9636_STAGE TD9636_WIND TD9636_PRES TD9635_LAT TD9635_LON TD9635_WIND TD9635_PRES TD9635_ROCI NEUMANN_LAT NEUMANN_LON NEUMANN_CLASS NEUMANN_WIND NEUMANN_PRES MLC_LAT MLC_LON MLC_CLASS MLC_WIND MLC_PRES USA_GUST BOM_GUST BOM_GUST_PER REUNION_GUST REUNION_GUST_PER USA_SEAHGT USA_SEARAD_NE USA_SEARAD_SE USA_SEARAD_SW USA_SEARAD_NW STORM_SPEED STORM_DIR
1949199N11139 1949 44 WP MM GLORIA 1949-07-18 00:00:00 TS 11.0000 139.000 main 1363 1357 O________OOO__ jtwc_wp WP051949 11.0000 139.000 20 -1 11.0000 139.000 TC 20 11.0000 139.000 1 20 11.0000 139.000 20 1004 180 9 289
1949199N11139 1949 44 WP MM GLORIA 1949-07-18 03:00:00 TS 11.1483 138.552 main 1363 1322 P________PPP__ WP051949 11.1352 138.540 20 -1 11.1352 138.540 TC 20 11.1878 138.586 1 21 11.1352 138.540 20 1004 210 9 290
1949199N11139 1949 44 WP MM GLORIA 1949-07-18 06:00:00 TS 11.3176 138.117 main 1322 1284 O________OPO__ jtwc_wp WP051949 11.3000 138.100 20 -1 11.3000 138.100 TC 20 11.3703 138.168 1 22 11.3000 138.100 20 1004 240 9 294
1949199N11139 1949 44 WP MM GLORIA 1949-07-18 09:00:00 TS 11.5162 137.705 main 1284 1246 P________PPP__ WP051949 11.5074 137.693 22 -1 11.5074 137.693 TC 22 11.5427 137.741 1 23 11.5074 137.693 22 1003 240 9 296
1949199N11139 1949 44 WP MM GLORIA 1949-07-18 12:00:00 TS 11.7000 137.300 main 1246 1206 O________OOO__ jtwc_wp WP051949 11.7000 137.300 25 -1 11.7000 137.300 TC 25 11.7000 137.300 1 25 11.7000 137.300 25 1003 240 8 290
1949199N11139 1949 44 WP MM GLORIA 1949-07-18 15:00:00 TS 11.8101 136.897 main 1206 1166 P________PPP__ WP051949 11.7999 136.915 25 -1 11.7999 136.915 TC 25 11.8409 136.845 1 25 11.7999 136.915 25 1002 240 8 285
1949199N11139 1949 44 WP MM GLORIA 1949-07-18 18:00:00 TS 11.9194 136.471 main 1166 1118 O________OPO__ jtwc_wp WP051949 11.9000 136.500 25 -1 11.9000 136.500 TC 25 11.9775 136.385 1 25 11.9000 136.500 25 1002 240 9 287
1949199N11139 1949 44 WP MM GLORIA 1949-07-18 21:00:00 TS 12.0895 135.983 main 1118 1056 P________PPP__ WP051949 12.0776 136.000 25 -1 12.0776 136.000 TC 25 12.1253 135.932 1 25 12.0776 136.000 25 1001 270 11 290
1949199N11139 1949 44 WP MM GLORIA 1949-07-19 00:00:00 TS 12.2941 135.412 main 1056 1016 O_O______OOO__ jtwc_wp WP051949 12.3000 135.500 25 -1 12.2000 134.000 0 1004 12.3000 135.500 TC 25 12.3000 135.500 1 25 12.3000 135.500 25 1001 300 11 293
1949199N11139 1949 44 WP MM GLORIA 1949-07-19 03:00:00 TS 12.5216 134.944 main 1005 976 P_P______PPP__ WP051949 12.5424 135.077 30 -1 12.4550 133.800 0 1002 12.5424 135.077 TC 30 12.4924 135.115 1 28 12.5424 135.077 30 1000 270 10 299
1949199N11139 1949 44 WP MM GLORIA 1949-07-19 06:00:00 TS 12.7667 134.537 main 968 938 O_O______OPO__ jtwc_wp WP051949 12.8000 134.700 35 0 12.7000 133.600 1 29 1000 12.8000 134.700 TC 35 12.7169 134.749 1 32 12.8000 134.700 35 999 240 9 302
1949199N11139 1949 44 WP MM GLORIA 1949-07-19 09:00:00 TS 13.0000 134.171 main 941 914 P_P______PPP__ WP051949 13.0274 134.357 37 0 12.9350 133.400 1 33 997 13.0274 134.357 TC 37 12.9830 134.384 1 36 13.0274 134.357 37 997 210 9 307
1949199N11139 1949 44 WP MM GLORIA 1949-07-19 12:00:00 TS 13.2800 133.840 main 907 881 O_O______OOO__ jtwc_wp WP051949 13.3000 134.000 40 0 13.2000 133.200 2 38 995 13.3000 134.000 TC 40 13.3000 134.000 2 40 13.3000 134.000 40 996 180 10 313
1949199N11139 1949 44 WP MM GLORIA 1949-07-19 15:00:00 TS 13.6520 133.445 main 872 847 P_P______PPP__ WP051949 13.6700 133.565 45 0 13.5425 133.007 2 38 992 13.6700 133.565 TC 45 13.7076 133.524 2 45 13.6700 133.565 45 994 180 11 315
1949199N11139 1949 44 WP MM GLORIA 1949-07-19 18:00:00 TS 14.0716 133.027 main 839 810 O_O______OPO__ jtwc_wp WP051949 14.1000 133.100 50 0 13.9000 132.800 2 38 990 14.1000 133.100 TC 50 14.1582 133.034 2 50 14.1000 133.100 50 992 180 12 316
1949199N11139 1949 44 WP MM GLORIA 1949-07-19 21:00:00 TS 14.5150 132.587 main 810 785 P_P______PPP__ WP051949 14.5876 132.605 55 0 14.2075 132.543 2 48 986 14.5876 132.605 TC 55 14.6046 132.577 2 55 14.5876 132.605 55 989 210 11 317
1949199N11139 1949 44 WP MM GLORIA 1949-07-20 00:00:00 TS 14.9000 132.220 main 785 774 O_O______OOO__ jtwc_wp WP051949 15.0000 132.200 60 0 14.5000 132.300 3 58 982 15.0000 132.200 TC 60 15.0000 132.200 2 60 15.0000 132.200 60 987 240 8 318
1949199N11139 1949 44 WP MM GLORIA 1949-07-20 03:00:00 TS 15.1135 132.021 main 774 768 P_P______PPP__ WP051949 15.1723 132.005 62 0 14.7850 132.135 3 63 978 15.1723 132.005 TC 62 15.2657 131.959 2 62 15.1723 132.005 62 984 270 5 322
1949199N11139 1949 44 WP MM GLORIA 1949-07-20 06:00:00 TS 15.2959 131.900 main 773 769 O_O______OPO__ jtwc_wp WP051949 15.3000 131.900 65 1 15.1000 132.000 4 68 974 15.3000 131.900 TC 65 15.4793 131.801 2 65 15.3000 131.900 65 982 300 5 332
1949199N11139 1949 44 WP MM GLORIA 1949-07-20 09:00:00 TS 15.5852 131.754 main 779 770 P_P______PPP__ WP051949 15.5850 131.743 67 1 15.4925 131.850 4 77 970 15.5850 131.743 TC 67 15.6783 131.693 2 67 15.5850 131.743 67 979 270 7 336
1949199N11139 1949 44 WP MM GLORIA 1949-07-20 12:00:00 TS 15.9000 131.620 main 777 777 O_O______OOO__ jtwc_wp WP051949 15.9000 131.600 70 1 15.9000 131.700 5 87 967 15.9000 131.600 TC 70 15.9000 131.600 3 70 15.9000 131.600 70 976 240 6 337
1949199N11139 1949 44 WP MM GLORIA 1949-07-20 15:00:00 TS 16.1651 131.498 main 786 784 P_P______PPP__ WP051949 16.1350 131.500 72 1 16.2650 131.542 5 92 963 16.1350 131.500 TC 72 16.1557 131.448 3 77 16.1350 131.500 72 973 240 6 337
1949199N11139 1949 44 WP MM GLORIA 1949-07-20 18:00:00 TS 16.4490 131.381 main 790 788 O_O______OPO__ jtwc_wp WP051949 16.4000 131.400 75 1 16.6000 131.400 5 97 960 16.4000 131.400 TC 75 16.4451 131.305 3 85 16.4000 131.400 75 970 240 7 339
1949199N11139 1949 44 WP MM GLORIA 1949-07-20 21:00:00 TS 16.7934 131.241 main 798 798 P_P______PPP__ WP051949 16.7625 131.243 87 2 16.8925 131.292 5 97 960 16.7625 131.243 TC 87 16.7870 131.185 3 92 16.7625 131.243 87 967 270 8 342
1949199N11139 1949 44 WP MM GLORIA 1949-07-21 00:00:00 TS 17.2000 131.120 main 807 807 O_O______OOO__ jtwc_wp WP051949 17.2000 131.100 100 3 17.2000 131.200 5 97 960 17.2000 131.100 TC 100 17.2000 131.100 4 100 17.2000 131.100 100 964 300 9 348
1949199N11139 1949 44 WP MM GLORIA 1949-07-21 03:00:00 TS 17.6543 131.045 main 824 824 P_P______PPP__ WP051949 17.6625 131.020 100 3 17.5850 131.093 5 97 960 17.6625 131.020 TC 100 17.6991 131.072 4 100 17.6625 131.020 100 961 300 10 355
1949199N11139 1949 44 WP MM GLORIA 1949-07-21 06:00:00 TS 18.1735 131.015 main 853 853 O_O______OPO__ jtwc_wp WP051949 18.2000 131.000 100 3 18.0000 131.000 5 97 960 18.2000 131.000 TC 100 18.2676 131.077 4 100 18.2000 131.000 100 958 300 11 359
1949199N11139 1949 44 WP MM GLORIA 1949-07-21 09:00:00 TS 18.7535 131.033 main 892 892 P_P______PPP__ WP051949 18.8275 131.042 100 3 18.4075 130.942 5 97 960 18.8275 131.042 TC 100 18.8773 131.093 4 100 18.8275 131.042 100 956 300 12 2
1949199N11139 1949 44 WP MM GLORIA 1949-07-21 12:00:00 TS 19.3600 131.060 main 932 932 O_O______OOO__ jtwc_wp WP051949 19.5000 131.100 100 3 18.8000 130.900 5 97 960 19.5000 131.100 TC 100 19.5000 131.100 4 100 19.5000 131.100 100 955 300 12 2
1949199N11139 1949 44 WP MM GLORIA 1949-07-21 15:00:00 TS 19.9499 131.063 main 939 939 P_P______PPP__ WP051949 20.1650 131.122 100 3 19.1500 130.850 5 97 960 20.1650 131.122 TC 100 20.1048 131.100 4 100 20.1650 131.122 100 954 330 12 360
1949199N11139 1949 44 WP MM GLORIA 1949-07-21 18:00:00 TS 20.5229 131.036 main 941 941 O_O______OPO__ jtwc_wp WP051949 20.8000 131.100 100 3 19.5000 130.800 5 97 960 20.8000 131.100 TC 100 20.7147 131.081 4 100 20.8000 131.100 100 954 360 11 356
1949199N11139 1949 44 WP MM GLORIA 1949-07-21 21:00:00 TS 21.0714 130.968 main 959 952 P_P______PPP__ WP051949 21.3875 131.023 100 3 19.8775 130.750 5 97 960 21.3875 131.023 TC 100 21.3172 131.022 4 100 21.3875 131.023 100 954 360 11 351
1949199N11139 1949 44 WP MM GLORIA 1949-07-22 00:00:00 TS 21.5800 130.860 main 966 950 O_O______OOO__ jtwc_wp WP051949 21.9000 130.900 100 3 20.3000 130.700 5 97 960 21.9000 130.900 TC 100 21.9000 130.900 4 100 21.9000 130.900 100 954 360 10 348
1949199N11139 1949 44 WP MM GLORIA 1949-07-22 03:00:00 TS 22.0230 130.749 main 940 914 P_P______PPP__ WP051949 22.2848 130.794 95 2 20.7775 130.657 5 97 960 22.2848 130.794 TC 95 22.4830 130.707 4 97 22.2848 130.794 95 955 390 10 343
1949199N11139 1949 44 WP MM GLORIA 1949-07-22 06:00:00 TS 22.4880 130.570 main 914 868 O_O______OPO__ jtwc_wp WP051949 22.7000 130.600 90 2 21.3000 130.600 5 97 960 22.7000 130.600 TC 90 23.0398 130.448 4 95 22.7000 130.600 90 956 420 12 338
1949199N11139 1949 44 WP MM GLORIA 1949-07-22 09:00:00 TS 23.0920 130.271 main 868 812 P_P______PPP__ WP051949 23.3652 130.223 90 2 21.8124 130.544 5 97 960 23.3652 130.223 TC 90 23.5517 130.141 4 92 23.3652 130.223 90 957 390 13 333
1949199N11139 1949 44 WP MM GLORIA 1949-07-22 12:00:00 TS 23.6800 129.920 main 812 774 O_O______OOO__ jtwc_wp WP051949 24.0000 129.800 90 2 22.4000 130.400 5 97 960 24.0000 129.800 TC 90 24.0000 129.800 4 90 24.0000 129.800 90 958 360 12 330
1949199N11139 1949 44 WP MM GLORIA 1949-07-22 15:00:00 TS 24.1064 129.620 main 774 739 P_P______PPP__ WP051949 24.3522 129.507 90 2 23.1274 130.117 5 97 960 24.3522 129.507 TC 90 24.3482 129.464 4 92 24.3522 129.507 90 957 390 10 323
1949199N11139 1949 44 WP MM GLORIA 1949-07-22 18:00:00 TS 24.4674 129.280 main 738 695 O_O______OPO__ jtwc_wp WP051949 24.6000 129.200 90 2 23.9000 129.700 5 97 960 24.6000 129.200 TC 90 24.6371 129.100 4 95 24.6000 129.200 90 956 420 10 316
1949199N11139 1949 44 WP MM GLORIA 1949-07-22 21:00:00 TS 24.8385 128.846 main 685 644 P_P______PPP__ WP051949 24.8775 128.772 95 2 24.6523 129.203 5 97 960 24.8775 128.772 TC 95 24.9075 128.711 4 97 24.8775 128.772 95 952 390 11 312
1949199N11139 1949 44 WP MM GLORIA 1949-07-23 00:00:00 TS 25.2200 128.360 main 644 596 O_O______OOO__ jtwc_wp WP051949 25.2000 128.300 100 3 25.3000 128.600 5 97 960 25.2000 128.300 TC 100 25.2000 128.300 4 100 25.2000 128.300 100 949 360 12 313
1949199N11139 1949 44 WP MM GLORIA 1949-07-23 03:00:00 TS 25.6539 127.869 main 597 552 P_P______PPP__ WP051949 25.6424 127.850 105 3 25.7677 127.900 5 97 960 25.6424 127.850 TC 105 25.5747 127.895 4 102 25.6424 127.850 105 944 360 12 314
1949199N11139 1949 44 WP MM GLORIA 1949-07-23 06:00:00 TS 26.0753 127.373 main 555 514 O_O______OPO__ jtwc_wp WP051949 26.1000 127.400 110 3 26.1000 127.200 5 97 960 26.1000 127.400 TC 110 25.9764 127.466 4 105 26.1000 127.400 110 940 360 12 312
1949199N11139 1949 44 WP MM GLORIA 1949-07-23 09:00:00 TS 26.4207 126.908 main 514 479 P_P______PPP__ WP051949 26.4496 126.972 110 3 26.3646 126.619 5 92 960 26.4496 126.972 TC 110 26.3900 127.004 4 107 26.4496 126.972 110 937 330 11 309
1949199N11139 1949 44 WP MM GLORIA 1949-07-23 12:00:00 TS 26.7600 126.420 main 483 443 O_O______OOO__ jtwc_wp WP051949 26.8000 126.500 110 3 26.6000 126.100 5 87 960 26.8000 126.500 TC 110 26.8000 126.500 4 110 26.8000 126.500 110 935 300 12 309
1949199N11139 1949 44 WP MM GLORIA 1949-07-23 15:00:00 TS 27.1696 125.859 main 440 368 P_P______PPP__ WP051949 27.2575 125.923 110 3 26.8847 125.592 5 87 960 27.2575 125.923 TC 110 27.1906 125.935 4 110 27.2575 125.923 110 934 300 13 308
1949199N11139 1949 44 WP MM GLORIA 1949-07-23 18:00:00 TS 27.5746 125.266 main 368 300 O_O______OPO__ jtwc_wp WP051949 27.7000 125.300 110 3 27.2000 125.100 5 87 960 27.7000 125.300 TC 110 27.5729 125.330 4 110 27.7000 125.300 110 934 300 13 305
1949199N11139 1949 44 WP MM GLORIA 1949-07-23 21:00:00 TS 27.9032 124.671 main 300 233 P_P______PPP__ WP051949 28.0149 124.684 110 3 27.5274 124.592 5 87 961 28.0149 124.684 TC 110 27.9436 124.710 4 110 28.0149 124.684 110 934 270 12 302
1949199N11139 1949 44 WP MM GLORIA 1949-07-24 00:00:00 TS 28.2200 124.100 main 233 169 O_O______OOO__ jtwc_wp WP051949 28.3000 124.100 110 3 27.9000 124.100 5 87 962 28.3000 124.100 TC 110 28.3000 124.100 4 110 28.3000 124.100 110 935 240 12 306
1949199N11139 1949 44 WP MM GLORIA 1949-07-24 03:00:00 TS 28.5863 123.589 main 169 111 P_P______PPP__ WP051949 28.6495 123.600 110 3 28.3424 123.628 5 87 963 28.6495 123.600 TC 110 28.6406 123.520 4 106 28.6495 123.600 110 938 240 11 310
1949199N11139 1949 44 WP MM GLORIA 1949-07-24 06:00:00 TS 28.9503 123.100 main 109 67 O_O______OPO__ jtwc_wp WP051949 29.0000 123.100 110 3 28.8000 123.200 5 87 964 29.0000 123.100 TC 110 28.9683 122.967 4 102 29.0000 123.100 110 942 240 10 308
1949199N11139 1949 44 WP MM GLORIA 1949-07-24 09:00:00 TS 29.2305 122.649 main 58 22 P_P______PPP__ WP051949 29.2074 122.637 102 3 29.2072 122.842 5 82 965 29.2074 122.637 TC 102 29.2869 122.430 4 98 29.3133 122.526 102 946 240 11 306
1949199N11139 1949 44 WP MM GLORIA 1949-07-24 12:00:00 TS 29.6000 122.071 main 22 0 O_O______OOO__ jtwc_wp WP051949 29.6000 121.900 95 2 29.6000 122.500 4 77 966 29.6000 121.900 TC 95 29.6000 121.900 4 95 29.6000 121.900 95 950 240 18 308
1949199N11139 1949 44 WP MM GLORIA 1949-07-24 15:00:00 TS 30.3654 120.997 main 9 0 P_P______P____ WP051949 30.5480 120.445 85 2 30.0000 122.100 4 77 967 30.5480 120.445 TC 85 4 24 309
1949199N11139 1949 44 WP MM GLORIA 1949-07-24 18:00:00 TS 31.1333 119.900 main 0 0 O_O______O____ jtwc_wp WP051949 31.5000 119.000 75 1 30.4000 121.700 4 77 968 31.5000 119.000 TC 75 4 19 310
1949199N11139 1949 44 WP MM GLORIA 1949-07-24 21:00:00 TS 31.5454 119.336 main 0 0 P_P______P____ WP051949 31.9219 118.352 67 1 30.7926 121.305 4 67 973 31.9219 118.352 TC 67 4 11 314
1949199N11139 1949 44 WP MM GLORIA 1949-07-25 00:00:00 TS 31.8667 119.000 main 0 0 O_O______O____ jtwc_wp WP051949 32.2000 118.000 60 0 31.2000 121.000 3 58 978 32.2000 118.000 TC 60 10 321
1949199N11139 1949 44 WP MM GLORIA 1949-07-25 03:00:00 TS 32.3040 118.620 main 0 0 P_P______P____ WP051949 32.6348 117.500 52 0 31.6423 120.862 3 48 980 32.6348 117.500 TC 52 9 334
1949199N11139 1949 44 WP MM GLORIA 1949-07-25 06:00:00 TS 32.7000 118.520 main 0 0 O_O______O____ jtwc_wp WP051949 33.1000 117.000 45 0 32.1000 120.800 2 38 983 33.1000 117.000 TC 45 7 0
1949199N11139 1949 44 WP MM GLORIA 1949-07-25 09:00:00 TS 33.0415 118.593 main 0 0 P_P______P____ WP051949 33.5554 116.501 37 0 32.5275 120.685 2 38 985 33.5554 116.501 TC 37 8 36
1949199N11139 1949 44 WP MM GLORIA 1949-07-25 12:00:00 TS 33.3333 119.067 main 0 0 O_O______O____ jtwc_wp WP051949 34.0000 116.000 30 -1 33.0000 120.600 2 38 988 34.0000 116.000 TC 30 17 72
1949199N11139 1949 44 WP MM GLORIA 1949-07-25 15:00:00 TS 33.5700 120.570 main 9 9 __P___________ WP051949 -1 33.5700 120.570 2 43 988 TC 15 56
1949199N11139 1949 44 WP MM GLORIA 1949-07-25 18:00:00 TS 34.2000 120.600 main 27 27 __O___________ -1 34.2000 120.600 3 48 988 13 3
1949199N11139 1949 44 WP MM GLORIA 1949-07-25 21:00:00 TS 34.8348 120.641 main 62 62 __P___________ -1 34.8348 120.641 3 58 986 13 7
1949199N11139 1949 44 WP MM GLORIA 1949-07-26 00:00:00 TS 35.5000 120.800 main 67 26 __O___________ -1 35.5000 120.800 4 68 985 14 15
1949199N11139 1949 44 WP MM GLORIA 1949-07-26 03:00:00 TS 36.2296 121.110 main 28 0 __P___________ -1 36.2296 121.110 4 63 987 15 25
1949199N11139 1949 44 WP MM GLORIA 1949-07-26 06:00:00 TS 36.9000 121.600 main 0 0 __O___________ -1 36.9000 121.600 3 58 990 15 37
1949199N11139 1949 44 WP MM GLORIA 1949-07-26 09:00:00 TS 37.4324 122.240 main 0 0 __P___________ -1 37.4324 122.240 3 53 992 14 51
1949199N11139 1949 44 WP MM GLORIA 1949-07-26 12:00:00 ET 37.8000 123.000 main 65 65 __O___________ -1 37.8000 123.000 9 48 995 14 65
1949199N11139 1949 44 WP MM GLORIA 1949-07-26 15:00:00 ET 38.0097 123.786 main 79 8 __P___________ -1 38.0097 123.786 9 38 996 13 77
1949199N11139 1949 44 WP MM GLORIA 1949-07-26 18:00:00 ET 38.1000 124.600 main 8 0 __O___________ -1 38.1000 124.600 9 29 998 13 83
1949199N11139 1949 44 WP MM GLORIA 1949-07-26 21:00:00 ET 38.1559 125.404 main 0 0 __P___________ -1 38.1559 125.404 9 29 998 13 85
1949199N11139 1949 44 WP MM GLORIA 1949-07-27 00:00:00 ET 38.2000 126.200 main 0 __O___________ -1 38.2000 126.200 9 29 998 13 86

デジタル台風データ・検索

IBTrACS Databaseについて

本データベースは、米国NOAAが公開する1842年以降の世界の熱帯低気圧のベストトラックデータアーカイブInternational Best Track Archive for Climate Stewardship (IBTrACS)を、ウェブで閲覧しやすい形式に変換したものです。

最終更新日:2021-11-26